createdAt,value
2023-08-23T00:00:37.533Z,2.30
2023-08-23T00:03:39.815Z,2.67
2023-08-23T00:06:43.457Z,2.35
2023-08-23T00:09:45.759Z,2.30
2023-08-23T00:12:50.754Z,2.78
2023-08-23T00:15:52.981Z,2.55
2023-08-23T00:18:55.391Z,2.53
2023-08-23T00:21:59.210Z,2.13
2023-08-23T00:25:01.517Z,1.88
2023-08-23T00:28:13.338Z,2.22
2023-08-23T00:31:16.787Z,3.28
2023-08-23T00:34:19.720Z,2.45
2023-08-23T00:37:23.352Z,2.35
2023-08-23T00:40:25.674Z,2.63
2023-08-23T00:43:28.404Z,2.40
2023-08-23T00:46:30.719Z,3.00
2023-08-23T00:49:35.720Z,2.40
2023-08-23T00:52:52.270Z,2.00
2023-08-23T00:55:56.012Z,2.40
2023-08-23T00:59:00.002Z,2.28
2023-08-23T01:02:02.592Z,2.25
2023-08-23T01:05:05.393Z,2.50
2023-08-23T01:08:17.323Z,2.40
2023-08-23T01:11:34.718Z,2.65
2023-08-23T01:14:44.304Z,2.38
2023-08-23T01:17:48.491Z,2.40
2023-08-23T01:20:53.623Z,2.50
2023-08-23T01:23:57.429Z,2.75
2023-08-23T01:27:01.849Z,2.42
2023-08-23T01:30:06.499Z,3.03
2023-08-23T01:33:14.697Z,2.78
2023-08-23T01:36:21.596Z,3.58
2023-08-23T01:39:26.952Z,2.67
2023-08-23T01:42:29.551Z,3.35
2023-08-23T01:45:31.869Z,4.38
2023-08-23T01:48:36.103Z,2.97
2023-08-23T01:51:39.649Z,2.90
2023-08-23T01:54:43.223Z,3.47
2023-08-23T01:57:45.798Z,2.88
2023-08-23T02:00:48.999Z,2.53
2023-08-23T02:03:51.253Z,3.08
2023-08-23T02:06:53.611Z,3.10
2023-08-23T02:09:57.267Z,2.85
2023-08-23T02:12:59.817Z,2.60
2023-08-23T02:16:02.139Z,2.45
2023-08-23T02:19:06.868Z,2.58
2023-08-23T02:22:09.161Z,2.75
2023-08-23T02:25:12.860Z,2.60
2023-08-23T02:28:15.131Z,2.97
2023-08-23T02:31:17.538Z,2.65
2023-08-23T02:34:19.796Z,3.20
2023-08-23T02:37:22.055Z,3.40
2023-08-23T02:40:25.646Z,2.60
2023-08-23T02:43:27.937Z,3.38
2023-08-23T02:46:30.421Z,2.90
2023-08-23T02:49:32.938Z,3.72
2023-08-23T02:52:35.211Z,3.10
2023-08-23T02:55:39.102Z,2.83
2023-08-23T02:58:41.358Z,2.78
2023-08-23T03:01:43.619Z,2.60
2023-08-23T03:04:48.409Z,2.30
2023-08-23T03:07:50.701Z,2.80
2023-08-23T03:11:03.145Z,2.58
2023-08-23T03:14:05.379Z,2.90
2023-08-23T03:17:07.729Z,2.40
2023-08-23T03:20:10.701Z,1.92
2023-08-23T03:23:13.655Z,3.03
2023-08-23T03:26:18.023Z,2.60
2023-08-23T03:29:20.298Z,2.95
2023-08-23T03:32:22.890Z,2.35
2023-08-23T03:35:25.274Z,2.75
2023-08-23T03:38:27.603Z,3.15
2023-08-23T03:41:31.421Z,3.55
2023-08-23T03:44:33.668Z,2.70
2023-08-23T03:47:35.947Z,2.55
2023-08-23T03:50:38.318Z,2.40
2023-08-23T03:53:40.563Z,2.58
2023-08-23T03:56:44.116Z,2.80
2023-08-23T03:59:46.506Z,2.60
2023-08-23T04:02:48.985Z,2.42
2023-08-23T04:05:51.385Z,3.10
2023-08-23T04:08:53.688Z,2.63
2023-08-23T04:11:58.603Z,2.55
2023-08-23T04:15:01.174Z,2.50
2023-08-23T04:18:03.787Z,2.42
2023-08-23T04:21:06.011Z,2.72
2023-08-23T04:24:08.406Z,3.22
2023-08-23T04:27:11.964Z,2.83
2023-08-23T04:30:14.710Z,3.42
2023-08-23T04:33:17.948Z,3.28
2023-08-23T04:36:20.278Z,3.17
2023-08-23T04:39:22.634Z,3.40
2023-08-23T04:42:29.772Z,3.15
2023-08-23T04:45:32.030Z,3.65
2023-08-23T04:48:35.456Z,3.63
2023-08-23T04:51:37.723Z,3.97
2023-08-23T04:54:40.465Z,3.00
2023-08-23T04:57:44.647Z,4.07
2023-08-23T05:00:47.316Z,3.88
2023-08-23T05:03:50.021Z,3.85
2023-08-23T05:06:52.670Z,4.32
2023-08-23T05:09:55.721Z,3.58
2023-08-23T05:13:00.853Z,4.55
2023-08-23T05:16:04.284Z,4.72
2023-08-23T05:19:06.736Z,3.40
2023-08-23T05:22:09.022Z,3.75
2023-08-23T05:25:11.338Z,4.03
2023-08-23T05:28:14.972Z,4.20
2023-08-23T05:31:17.418Z,4.43
2023-08-23T05:34:21.972Z,5.13
2023-08-23T05:37:24.680Z,5.20
2023-08-23T05:40:27.173Z,4.85
2023-08-23T05:43:30.740Z,6.13
2023-08-23T05:46:32.982Z,6.00
2023-08-23T05:49:35.384Z,5.70
2023-08-23T05:52:37.696Z,5.32
2023-08-23T05:55:40.726Z,5.72
2023-08-23T05:58:44.285Z,5.72
2023-08-23T06:01:46.519Z,5.05
2023-08-23T06:04:48.761Z,5.97
2023-08-23T06:07:51.141Z,5.70
2023-08-23T06:10:53.466Z,6.57
2023-08-23T06:13:57.172Z,6.13
2023-08-23T06:16:59.421Z,6.22
2023-08-23T06:20:02.150Z,5.50
2023-08-23T06:23:05.044Z,5.43
2023-08-23T06:26:07.343Z,6.07
2023-08-23T06:29:12.657Z,5.80
2023-08-23T06:32:15.716Z,5.65
2023-08-23T06:35:19.840Z,5.28
2023-08-23T06:38:21.988Z,4.40
2023-08-23T06:41:24.207Z,4.97
2023-08-23T06:44:27.875Z,4.68
2023-08-23T06:47:30.118Z,4.47
2023-08-23T06:50:34.038Z,4.50
2023-08-23T06:53:36.665Z,4.20
2023-08-23T06:56:39.054Z,4.30
2023-08-23T06:59:42.787Z,4.30
2023-08-23T07:02:45.022Z,3.83
2023-08-23T07:05:47.295Z,4.57
2023-08-23T07:08:49.648Z,3.47
2023-08-23T07:11:52.033Z,3.25
2023-08-23T07:14:55.700Z,3.33
2023-08-23T07:17:57.949Z,3.05
2023-08-23T07:21:00.277Z,3.33
2023-08-23T07:24:03.872Z,4.00
2023-08-23T07:27:06.187Z,4.00
2023-08-23T07:30:12.625Z,3.88
2023-08-23T07:33:14.952Z,4.20
2023-08-23T07:36:17.290Z,4.03
2023-08-23T07:39:20.980Z,4.85
2023-08-23T07:42:25.164Z,4.28
2023-08-23T07:45:29.549Z,4.22
2023-08-23T07:48:31.973Z,4.90
2023-08-23T07:51:34.193Z,4.93
2023-08-23T07:54:36.451Z,6.63
2023-08-23T07:57:38.642Z,4.75
2023-08-23T08:00:42.506Z,4.85
2023-08-23T08:03:44.856Z,5.28
2023-08-23T08:06:47.935Z,6.10
2023-08-23T08:09:50.255Z,7.10
2023-08-23T08:12:52.524Z,5.15
2023-08-23T08:15:56.861Z,6.43
2023-08-23T08:18:59.877Z,6.45
2023-08-23T08:22:02.107Z,6.20
2023-08-23T08:25:05.759Z,6.05
2023-08-23T08:28:08.254Z,4.85
2023-08-23T08:31:11.996Z,6.40
2023-08-23T08:34:14.242Z,5.03
2023-08-23T08:37:16.798Z,4.82
2023-08-23T08:40:19.641Z,6.35
2023-08-23T08:43:21.867Z,4.35
2023-08-23T08:46:25.938Z,5.10
2023-08-23T08:49:28.267Z,5.80
2023-08-23T08:52:31.295Z,3.90
2023-08-23T08:55:33.940Z,3.47
2023-08-23T08:58:36.489Z,3.55
2023-08-23T09:01:40.299Z,4.75
2023-08-23T09:04:46.559Z,5.40
2023-08-23T09:07:49.174Z,4.68
2023-08-23T09:10:51.699Z,3.95
2023-08-23T09:13:55.416Z,3.75
2023-08-23T09:16:59.087Z,5.57
2023-08-23T09:20:05.572Z,5.68
2023-08-23T09:23:08.042Z,5.05
2023-08-23T09:26:10.345Z,5.10
2023-08-23T09:29:13.182Z,3.35
2023-08-23T09:32:17.015Z,4.13
2023-08-23T09:35:19.967Z,4.30
2023-08-23T09:38:22.653Z,4.65
2023-08-23T09:41:25.444Z,2.97
2023-08-23T09:44:28.168Z,3.35
2023-08-23T09:47:33.025Z,3.45
2023-08-23T09:50:35.654Z,3.58
2023-08-23T09:53:41.619Z,4.95
2023-08-23T09:56:44.566Z,3.40
2023-08-23T09:59:47.153Z,4.18
2023-08-23T10:02:50.940Z,3.55
2023-08-23T10:05:53.448Z,4.28
2023-08-23T10:08:56.748Z,4.65
2023-08-23T10:12:01.907Z,4.20
2023-08-23T10:15:05.788Z,3.80
2023-08-23T10:18:12.307Z,4.30
2023-08-23T10:21:14.600Z,3.13
2023-08-23T10:24:16.823Z,3.45
2023-08-23T10:27:19.072Z,3.10
2023-08-23T10:30:24.015Z,3.63
2023-08-23T10:33:27.656Z,3.80
2023-08-23T10:36:30.938Z,2.90
2023-08-23T10:39:33.235Z,3.20
2023-08-23T10:42:35.670Z,3.60
2023-08-23T10:45:53.637Z,2.72
2023-08-23T10:48:57.560Z,2.85
2023-08-23T10:51:59.813Z,2.10
2023-08-23T10:55:04.276Z,1.60
2023-08-23T10:58:06.597Z,2.00
2023-08-23T11:01:09.165Z,1.40
2023-08-23T11:04:14.323Z,1.00
2023-08-23T11:07:16.982Z,0.88
2023-08-23T11:10:19.435Z,1.00
2023-08-23T11:13:21.831Z,0.88
2023-08-23T11:16:24.861Z,1.10
2023-08-23T11:19:29.858Z,1.02
2023-08-23T11:22:32.226Z,0.80
2023-08-23T11:25:34.683Z,0.80
2023-08-23T11:28:37.034Z,0.90
2023-08-23T11:31:39.446Z,0.85
2023-08-23T11:34:43.169Z,0.95
2023-08-23T11:37:49.550Z,0.80
2023-08-23T11:40:52.247Z,0.93
2023-08-23T11:43:55.647Z,1.23
2023-08-23T11:46:59.360Z,1.00
2023-08-23T11:50:05.942Z,0.73
2023-08-23T11:53:10.836Z,1.08
2023-08-23T11:56:15.356Z,0.90
2023-08-23T11:59:17.736Z,0.90
2023-08-23T12:02:20.502Z,1.10
2023-08-23T12:05:24.157Z,1.20
2023-08-23T12:08:27.523Z,1.30
2023-08-23T12:11:29.844Z,1.10
2023-08-23T12:14:32.072Z,1.63
2023-08-23T12:17:34.466Z,1.30
2023-08-23T12:20:38.729Z,2.05
2023-08-23T12:23:41.011Z,1.42
2023-08-23T12:26:43.349Z,1.10
2023-08-23T12:29:45.649Z,1.50
2023-08-23T12:32:48.205Z,1.55
2023-08-23T12:35:51.864Z,1.40
2023-08-23T12:38:54.387Z,1.20
2023-08-23T12:41:56.720Z,1.50
2023-08-23T12:45:00.113Z,1.27
2023-08-23T12:48:02.627Z,1.52
2023-08-23T12:51:06.256Z,1.38
2023-08-23T12:54:09.000Z,1.63
2023-08-23T12:57:11.241Z,1.45
2023-08-23T13:00:28.733Z,1.67
2023-08-23T13:03:34.375Z,1.40
2023-08-23T13:06:38.007Z,1.30
2023-08-23T13:09:40.337Z,1.67
2023-08-23T13:12:42.569Z,1.58
2023-08-23T13:15:44.881Z,1.30
2023-08-23T13:18:47.187Z,1.33
2023-08-23T13:21:50.840Z,1.40
2023-08-23T13:24:53.079Z,1.45
2023-08-23T13:27:55.386Z,1.08
2023-08-23T13:31:00.687Z,1.30
2023-08-23T13:34:02.925Z,1.33
2023-08-23T13:37:06.586Z,1.45
2023-08-23T13:40:10.231Z,1.63
2023-08-23T13:43:17.136Z,1.58
2023-08-23T13:46:20.480Z,1.15
2023-08-23T13:49:22.757Z,0.95
2023-08-23T13:52:26.379Z,1.20
2023-08-23T13:55:29.428Z,1.60
2023-08-23T13:58:31.690Z,1.50
2023-08-23T14:01:34.150Z,1.60
2023-08-23T14:04:37.964Z,1.85
2023-08-23T14:07:41.945Z,2.30
2023-08-23T14:10:44.514Z,2.28
2023-08-23T14:13:46.790Z,2.17
2023-08-23T14:16:49.946Z,1.80
2023-08-23T14:19:52.273Z,2.05
2023-08-23T14:22:55.913Z,1.83
2023-08-23T14:25:59.295Z,1.80
2023-08-23T14:29:01.528Z,1.70
2023-08-23T14:32:04.376Z,1.85
2023-08-23T14:35:07.354Z,1.58
2023-08-23T14:38:10.989Z,1.58
2023-08-23T14:41:13.214Z,1.48
2023-08-23T14:44:15.472Z,1.50
2023-08-23T14:47:17.792Z,1.10
2023-08-23T14:50:20.395Z,1.00
2023-08-23T14:53:24.175Z,1.30
2023-08-23T14:56:26.444Z,0.90
2023-08-23T14:59:28.636Z,1.10
2023-08-23T15:02:30.911Z,1.40
2023-08-23T15:05:34.309Z,0.95
2023-08-23T15:08:41.212Z,1.13
2023-08-23T15:11:43.666Z,1.20
2023-08-23T15:14:46.476Z,1.10
2023-08-23T15:17:49.039Z,0.82
2023-08-23T15:20:51.876Z,1.25
2023-08-23T15:23:55.560Z,1.05
2023-08-23T15:26:58.279Z,1.15
2023-08-23T15:30:09.968Z,1.40
2023-08-23T15:33:14.731Z,1.38
2023-08-23T15:36:17.489Z,0.93
2023-08-23T15:39:21.043Z,1.50
2023-08-23T15:42:24.230Z,1.10
2023-08-23T15:45:28.537Z,0.90
2023-08-23T15:48:36.116Z,1.13
2023-08-23T15:51:38.318Z,1.10
2023-08-23T15:54:42.035Z,0.88
2023-08-23T15:57:44.276Z,1.17
2023-08-23T16:00:46.599Z,0.80
2023-08-23T16:03:48.903Z,1.40
2023-08-23T16:06:51.933Z,0.95
2023-08-23T16:09:55.959Z,1.15
2023-08-23T16:12:58.220Z,0.90
2023-08-23T16:16:00.780Z,1.05
2023-08-23T16:19:03.039Z,1.20
2023-08-23T16:22:05.523Z,0.90
2023-08-23T16:25:10.377Z,1.00
2023-08-23T16:28:12.628Z,0.93
2023-08-23T16:31:14.988Z,1.00
2023-08-23T16:34:17.327Z,0.93
2023-08-23T16:37:19.603Z,1.10
2023-08-23T16:40:23.237Z,1.10
2023-08-23T16:43:30.820Z,1.00
2023-08-23T16:46:33.094Z,0.90
2023-08-23T16:49:35.444Z,1.10
2023-08-23T16:52:37.709Z,1.08
2023-08-23T16:55:42.739Z,1.05
2023-08-23T16:58:48.272Z,1.08
2023-08-23T17:01:50.499Z,1.27
2023-08-23T17:04:52.767Z,1.55
2023-08-23T17:07:55.027Z,1.30
2023-08-23T17:11:04.949Z,1.20
2023-08-23T17:14:07.798Z,1.30
2023-08-23T17:17:13.940Z,0.90
2023-08-23T17:20:16.596Z,1.33
2023-08-23T17:23:18.823Z,1.15
2023-08-23T17:26:25.512Z,1.10
2023-08-23T17:29:27.892Z,1.10
2023-08-23T17:32:31.897Z,1.27
2023-08-23T17:35:34.231Z,1.83
2023-08-23T17:38:36.456Z,1.63
2023-08-23T17:41:40.619Z,1.30
2023-08-23T17:44:43.843Z,1.10
2023-08-23T17:47:46.196Z,2.22
2023-08-23T17:50:48.448Z,1.70
2023-08-23T17:53:51.145Z,7.10
2023-08-23T17:56:54.754Z,2.35
2023-08-23T17:59:57.351Z,3.20
2023-08-23T18:02:59.814Z,4.47
2023-08-23T18:06:02.318Z,2.05
2023-08-23T18:09:06.161Z,1.30
2023-08-23T18:12:09.895Z,1.50
2023-08-23T18:15:14.412Z,1.40
2023-08-23T18:18:16.827Z,1.15
2023-08-23T18:21:19.165Z,1.30
2023-08-23T18:24:21.404Z,1.10
2023-08-23T18:27:25.032Z,1.27
2023-08-23T18:30:28.408Z,1.20
2023-08-23T18:33:36.115Z,0.93
2023-08-23T18:36:38.573Z,1.02
2023-08-23T18:39:40.890Z,1.60
2023-08-23T18:42:44.826Z,1.30
2023-08-23T18:45:47.138Z,1.90
2023-08-23T18:48:49.381Z,1.60
2023-08-23T18:51:51.723Z,1.70
2023-08-23T18:54:54.107Z,1.27
2023-08-23T18:57:58.440Z,1.50
2023-08-23T19:01:00.941Z,1.67
2023-08-23T19:04:03.501Z,1.42
2023-08-23T19:07:06.016Z,1.60
2023-08-23T19:10:09.727Z,1.65
2023-08-23T19:13:13.499Z,1.67
2023-08-23T19:16:15.838Z,2.20
2023-08-23T19:19:18.185Z,2.45
2023-08-23T19:22:20.458Z,2.35
2023-08-23T19:25:23.057Z,2.83
2023-08-23T19:28:26.677Z,5.53
2023-08-23T19:31:33.969Z,7.72
2023-08-23T19:34:36.436Z,4.00
2023-08-23T19:37:38.743Z,2.63
2023-08-23T19:40:41.196Z,3.63
2023-08-23T19:43:44.932Z,2.50
2023-08-23T19:46:47.194Z,2.25
2023-08-23T19:49:49.495Z,2.80
2023-08-23T19:52:56.399Z,1.60
2023-08-23T19:56:05.227Z,2.42
2023-08-23T19:59:08.973Z,2.40
2023-08-23T20:02:11.245Z,1.63
2023-08-23T20:05:15.726Z,2.08
2023-08-23T20:08:19.543Z,1.95
2023-08-23T20:14:44.249Z,2.53
2023-08-23T20:17:46.543Z,1.80
2023-08-23T20:20:49.126Z,2.70
2023-08-23T20:23:51.361Z,2.70
2023-08-23T20:26:53.633Z,2.47
2023-08-23T20:30:00.877Z,2.30
2023-08-23T20:33:03.423Z,2.03
2023-08-23T20:36:06.451Z,2.15
2023-08-23T20:39:08.705Z,4.53
2023-08-23T20:42:10.986Z,2.70
2023-08-23T20:45:14.645Z,4.13
2023-08-23T20:48:16.920Z,5.85
2023-08-23T20:51:19.185Z,5.28
2023-08-23T20:54:21.422Z,2.50
2023-08-23T20:57:23.654Z,2.60
2023-08-23T21:00:28.950Z,2.25
2023-08-23T21:03:34.398Z,2.35
2023-08-23T21:06:37.005Z,2.00
2023-08-23T21:09:40.393Z,1.77
2023-08-23T21:12:42.645Z,1.95
2023-08-23T21:15:46.970Z,1.80
2023-08-23T21:18:49.301Z,1.95
2023-08-23T21:21:51.732Z,2.05
2023-08-23T21:24:53.921Z,1.80
2023-08-23T21:27:56.834Z,1.70
2023-08-23T21:31:02.976Z,2.28
2023-08-23T21:34:05.377Z,2.53
2023-08-23T21:37:07.691Z,6.13
2023-08-23T21:40:10.670Z,3.67
2023-08-23T21:43:12.877Z,2.45
2023-08-23T21:46:16.502Z,3.20
2023-08-23T21:49:18.822Z,2.10
2023-08-23T21:52:21.482Z,2.53
2023-08-23T21:55:23.934Z,2.20
2023-08-23T21:58:28.014Z,1.92
2023-08-23T22:01:34.062Z,2.17
2023-08-23T22:04:36.242Z,1.90
2023-08-23T22:07:38.548Z,2.53
2023-08-23T22:10:40.723Z,1.75
2023-08-23T22:13:43.635Z,2.50
2023-08-23T22:16:47.356Z,2.10
2023-08-23T22:19:49.619Z,2.00
2023-08-23T22:22:51.887Z,2.08
2023-08-23T22:25:56.715Z,1.95
2023-08-23T22:29:01.652Z,2.38
2023-08-23T22:32:08.512Z,1.77
2023-08-23T22:35:10.956Z,2.55
2023-08-23T22:38:14.839Z,1.88
2023-08-23T22:41:17.803Z,2.22
2023-08-23T22:44:20.192Z,2.13
2023-08-23T22:47:23.797Z,2.08
2023-08-23T22:50:26.348Z,2.20
2023-08-23T22:53:30.489Z,2.28
2023-08-23T22:56:32.745Z,1.70
2023-08-23T22:59:34.970Z,2.05
2023-08-23T23:02:39.076Z,2.53
2023-08-23T23:05:41.362Z,2.15
2023-08-23T23:08:44.691Z,2.20
2023-08-23T23:11:47.233Z,2.28
2023-08-23T23:14:49.471Z,2.40
2023-08-23T23:17:53.379Z,2.42
2023-08-23T23:20:56.390Z,2.40
2023-08-23T23:23:58.705Z,2.20
2023-08-23T23:27:04.768Z,2.33
2023-08-23T23:30:07.896Z,2.25
2023-08-23T23:33:11.657Z,1.95
2023-08-23T23:36:14.211Z,1.90
2023-08-23T23:39:16.750Z,2.00
2023-08-23T23:42:19.160Z,2.05
2023-08-23T23:45:33.113Z,2.05
2023-08-23T23:48:36.881Z,1.80
2023-08-23T23:51:39.551Z,2.72
2023-08-23T23:54:41.846Z,2.30
2023-08-23T23:57:44.050Z,2.85
